Time;durP1;ratioP1;P1;durP2;ratioP2;P2;SDS_P1;SDS_P2;PMS_P1;PMS_P2;Temp;Humidity;BMP_temperature;BMP_pressure;BME280_temperature;BME280_humidity;BME280_pressure;Samples;Min_cycle;Max_cycle;Signal;HPM_P1;HPM_P2
2023/02/24 00:02:04;;;;;;;23.77;4.35;;;;;;;7.27;60.00;101534.84;4972626;28;114262;-67
2023/02/24 00:04:34;;;;;;;21.05;4.10;;;;;;;7.25;59.73;101534.00;4988713;28;115602;-68
2023/02/24 00:07:01;;;;;;;20.55;4.30;;;;;;;7.20;60.01;101534.97;4988521;28;124700;-67
2023/02/24 00:09:30;;;;;;;18.30;3.75;;;;;;;7.17;59.91;101535.03;4970098;28;124126;-67
2023/02/24 00:12:07;;;;;;;18.85;3.67;;;;;;;7.13;60.35;101533.34;4987702;28;114274;-71
2023/02/24 00:14:38;;;;;;;18.05;3.72;;;;;;;7.09;59.89;101534.31;4985859;28;114227;-67
2023/02/24 00:17:07;;;;;;;20.95;4.22;;;;;;;7.06;59.92;101526.47;4985529;28;124530;-67
2023/02/24 00:19:35;;;;;;;16.17;3.88;;;;;;;7.03;60.14;101523.91;4990144;28;123588;-68
2023/02/24 00:22:05;;;;;;;21.02;4.20;;;;;;;7.01;60.24;101528.34;4989324;28;114623;-67
2023/02/24 00:24:34;;;;;;;12.07;3.38;;;;;;;6.98;60.28;101531.03;4988467;28;113995;-67
2023/02/24 00:27:06;;;;;;;21.15;3.58;;;;;;;6.96;60.11;101519.66;4986743;28;124660;-68
2023/02/24 00:29:38;;;;;;;19.88;3.60;;;;;;;6.95;60.62;101515.25;4972766;28;124202;-68
2023/02/24 00:32:11;;;;;;;20.13;3.95;;;;;;;6.94;60.43;101517.03;4989754;28;113599;-68
2023/02/24 00:34:40;;;;;;;15.73;3.80;;;;;;;6.94;60.60;101510.91;4988415;28;113936;-68
2023/02/24 00:37:08;;;;;;;22.85;4.75;;;;;;;6.94;60.30;101505.66;4986914;28;124462;-67
2023/02/24 00:39:39;;;;;;;25.52;3.95;;;;;;;6.95;60.82;101502.09;4971401;28;124732;-67
2023/02/24 00:42:10;;;;;;;18.15;3.55;;;;;;;6.95;60.61;101508.25;4973250;28;114999;-68
2023/02/24 00:44:40;;;;;;;22.30;4.00;;;;;;;6.95;60.59;101507.38;4972695;28;113311;-67
2023/02/24 00:47:09;;;;;;;18.75;3.90;;;;;;;6.96;60.74;101511.75;4989328;28;125001;-68
2023/02/24 00:49:41;;;;;;;15.65;3.90;;;;;;;6.95;60.59;101508.25;4955877;28;123896;-68
2023/02/24 00:52:15;;;;;;;22.73;3.80;;;;;;;6.96;60.92;101509.13;4988982;28;116159;-67
2023/02/24 00:54:44;;;;;;;14.48;3.30;;;;;;;6.97;60.71;101503.81;4987286;28;116674;-68
2023/02/24 00:57:13;;;;;;;20.10;3.95;;;;;;;6.99;60.94;101499.41;4986767;28;124813;-68
2023/02/24 00:59:41;;;;;;;23.25;4.75;;;;;;;7.03;61.01;101505.47;4986741;28;123872;-68
2023/02/24 01:02:10;;;;;;;19.08;3.80;;;;;;;7.04;61.03;101495.78;4989230;28;114802;-67
2023/02/24 01:04:37;;;;;;;18.08;4.03;;;;;;;7.06;61.05;101494.00;4967239;28;113958;-67
2023/02/24 01:07:09;;;;;;;18.80;3.72;;;;;;;7.08;61.38;101487.78;4987483;28;124520;-68
2023/02/24 01:09:40;;;;;;;19.70;4.07;;;;;;;7.11;60.95;101493.00;4987217;28;124040;-68
2023/02/24 01:14:55;;;;;;;14.45;3.72;;;;;;;7.15;61.22;101481.50;4985382;28;113498;-68
2023/02/24 01:17:24;;;;;;;15.38;4.25;;;;;;;7.16;60.97;101459.53;4983317;28;124341;-68
2023/02/24 01:19:51;;;;;;;21.50;4.05;;;;;;;7.19;61.10;101464.72;4974929;28;123325;-68
2023/02/24 01:22:20;;;;;;;16.23;4.22;;;;;;;7.21;61.21;101462.97;4971132;28;114420;-68
2023/02/24 01:24:48;;;;;;;16.95;4.22;;;;;;;7.23;61.14;101460.25;4986977;28;112974;-67
2023/02/24 01:27:17;;;;;;;13.80;3.65;;;;;;;7.27;61.53;101455.81;4986711;28;124391;-67
2023/02/24 01:29:46;;;;;;;15.38;3.70;;;;;;;7.31;61.28;101457.47;4971398;28;122009;-70
2023/02/24 01:32:20;;;;;;;15.52;3.88;;;;;;;7.34;61.27;101457.41;4989119;28;114728;-67
2023/02/24 01:34:51;;;;;;;20.07;4.20;;;;;;;7.38;61.12;101459.06;4975424;28;113275;-67
2023/02/24 01:37:19;;;;;;;14.23;3.80;;;;;;;7.39;61.51;101459.03;4989444;28;124485;-67
2023/02/24 01:39:48;;;;;;;17.73;3.90;;;;;;;7.40;61.12;101452.88;4989988;28;124124;-68
2023/02/24 01:42:19;;;;;;;16.35;3.88;;;;;;;7.42;61.29;101450.19;4966442;28;115269;-67
2023/02/24 01:44:46;;;;;;;18.00;3.78;;;;;;;7.43;61.32;101444.03;4989896;28;114887;-70
2023/02/24 01:47:17;;;;;;;14.48;3.58;;;;;;;7.44;61.43;101436.97;4957805;28;123134;-67
2023/02/24 01:49:46;;;;;;;14.77;3.75;;;;;;;7.46;61.38;101436.06;4989951;28;123983;-67
2023/02/24 01:52:16;;;;;;;17.00;3.45;;;;;;;7.46;60.97;101420.25;4989876;28;114968;-67
2023/02/24 01:54:53;;;;;;;17.73;3.28;;;;;;;7.47;61.04;101416.69;4989456;28;114312;-67
2023/02/24 01:57:25;;;;;;;12.80;3.83;;;;;;;7.49;61.14;101412.25;4972614;28;123033;-67
2023/02/24 02:00:00;;;;;;;15.40;3.50;;;;;;;7.49;61.35;101409.63;4989338;28;123402;-67
2023/02/24 02:02:28;;;;;;;16.65;3.08;;;;;;;7.51;61.18;101407.81;4974038;28;114550;-71
2023/02/24 02:05:02;;;;;;;15.13;3.75;;;;;;;7.53;61.19;101406.00;4991248;28;114048;-68
2023/02/24 02:07:30;;;;;;;16.77;3.60;;;;;;;7.55;61.06;101398.97;4958209;28;123225;-68
2023/02/24 02:10:08;;;;;;;13.32;3.20;;;;;;;7.56;61.04;101384.88;4988602;28;124387;-68
2023/02/24 02:12:42;;;;;;;15.93;3.38;;;;;;;7.57;61.05;101381.34;4959084;28;113179;-67
2023/02/24 02:15:19;;;;;;;19.63;3.80;;;;;;;7.57;61.08;101376.06;4989809;28;114059;-67
2023/02/24 02:18:13;;;;;;;17.23;3.17;;;;;;;7.57;61.23;101370.78;4971983;28;124537;-68
2023/02/24 02:20:46;;;;;;;22.92;3.65;;;;;;;7.59;60.83;101368.97;4992556;28;124678;-68
2023/02/24 02:23:49;;;;;;;10.98;2.78;;;;;;;7.59;61.01;101358.44;4975388;28;113992;-67
2023/02/24 02:26:35;;;;;;;9.80;2.78;;;;;;;7.60;61.10;101352.25;4987910;28;114230;-68
2023/02/24 02:29:24;;;;;;;16.08;3.40;;;;;;;7.59;61.06;101342.63;4971754;28;123111;-67
2023/02/24 02:32:04;;;;;;;18.17;3.10;;;;;;;7.60;60.84;101344.34;4990500;28;124636;-67
2023/02/24 02:35:10;;;;;;;14.00;3.10;;;;;;;7.60;60.77;101333.78;4989066;28;115732;-68
2023/02/24 02:37:51;;;;;;;9.53;3.23;;;;;;;7.61;60.68;101334.69;4951221;28;114944;-68
2023/02/24 02:40:30;;;;;;;11.77;2.97;;;;;;;7.59;60.83;101332.09;4989282;28;124768;-68
2023/02/24 02:43:03;;;;;;;13.13;2.65;;;;;;;7.58;60.45;101330.34;4990331;28;125120;-72
2023/02/24 02:45:46;;;;;;;11.73;3.45;;;;;;;7.56;60.49;101332.16;4974367;28;113754;-68
2023/02/24 02:48:26;;;;;;;15.40;3.00;;;;;;;7.56;60.45;101321.59;4972674;28;115107;-68
2023/02/24 02:51:03;;;;;;;15.18;3.28;;;;;;;7.55;60.49;101313.72;4957221;28;123522;-68
2023/02/24 02:53:42;;;;;;;21.33;3.05;;;;;;;7.53;60.34;101316.38;4971483;28;123851;-68
2023/02/24 02:56:21;;;;;;;13.25;2.67;;;;;;;7.50;60.50;101310.34;4988214;28;116219;-68
2023/02/24 02:58:53;;;;;;;13.73;2.88;;;;;;;7.47;60.30;101316.56;4990430;28;114342;-68
2023/02/24 03:01:27;;;;;;;9.80;2.58;;;;;;;7.44;60.45;101306.09;4973565;28;123239;-68
2023/02/24 03:04:00;;;;;;;15.20;3.13;;;;;;;7.40;60.00;101305.31;4973666;28;122923;-68
2023/02/24 03:06:32;;;;;;;13.13;2.97;;;;;;;7.37;60.28;101309.78;4972447;28;113537;-68
2023/02/24 03:09:14;;;;;;;10.77;2.72;;;;;;;7.32;59.94;101303.75;4974107;28;112923;-68
2023/02/24 03:11:47;;;;;;;11.82;2.97;;;;;;;7.27;59.97;101300.34;4961924;28;123170;-68
2023/02/24 03:14:18;;;;;;;10.18;2.67;;;;;;;7.22;60.09;101293.44;4973263;28;122921;-68
2023/02/24 03:16:48;;;;;;;13.18;2.60;;;;;;;7.17;60.12;101292.66;4973073;28;113330;-67
2023/02/24 03:19:19;;;;;;;12.20;2.60;;;;;;;7.12;59.68;101299.84;4985437;28;113808;-68
2023/02/24 03:22:00;;;;;;;14.48;2.75;;;;;;;7.06;59.87;101305.22;4973190;28;123860;-68
2023/02/24 03:24:28;;;;;;;16.40;3.03;;;;;;;6.99;60.00;101293.13;4973157;28;122968;-68
2023/02/24 03:27:07;;;;;;;15.13;2.97;;;;;;;6.93;59.76;101294.13;4972444;28;114269;-68
2023/02/24 03:29:44;;;;;;;11.90;3.05;;;;;;;6.89;59.67;101286.31;4987314;28;114355;-68
2023/02/24 03:32:22;;;;;;;16.02;3.20;;;;;;;6.84;60.06;101281.16;4970163;28;123501;-68
2023/02/24 03:34:59;;;;;;;15.52;2.75;;;;;;;6.79;59.78;101281.25;4971919;28;123201;-68
2023/02/24 03:37:30;;;;;;;13.50;3.17;;;;;;;6.76;59.61;101278.72;4969393;28;113365;-68
2023/02/24 03:40:06;;;;;;;11.98;2.85;;;;;;;6.72;59.78;101274.38;4972856;28;113143;-68
2023/02/24 03:42:33;;;;;;;8.13;3.00;;;;;;;6.68;60.06;101267.47;4954663;28;123227;-68
2023/02/24 03:45:01;;;;;;;12.60;2.70;;;;;;;6.64;59.71;101276.34;4972404;28;123144;-68
2023/02/24 03:47:29;;;;;;;12.70;3.10;;;;;;;6.59;60.47;101272.94;4972920;28;113390;-68
2023/02/24 03:49:56;;;;;;;18.08;3.30;;;;;;;6.55;59.95;101256.34;4970835;28;113251;-68
2023/02/24 03:52:33;;;;;;;17.45;3.25;;;;;;;6.53;59.87;101257.28;4971536;28;123576;-67
2023/02/24 03:55:22;;;;;;;13.25;3.08;;;;;;;6.50;59.98;101257.34;4956182;28;123456;-67
2023/02/24 03:58:03;;;;;;;10.63;3.20;;;;;;;6.47;59.76;101262.69;4967122;28;113348;-67
2023/02/24 04:01:04;;;;;;;13.52;3.05;;;;;;;6.40;60.02;101262.81;4973272;28;113172;-67
2023/02/24 04:03:52;;;;;;;14.23;3.00;;;;;;;6.36;59.98;101260.28;4984717;28;123178;-68
2023/02/24 04:06:40;;;;;;;15.38;2.83;;;;;;;6.32;59.96;101258.59;4977378;28;123496;-68
2023/02/24 04:09:18;;;;;;;15.00;3.35;;;;;;;6.28;59.78;101263.06;4971518;28;113938;-67
2023/02/24 04:12:08;;;;;;;16.98;2.90;;;;;;;6.25;60.01;101252.59;4973036;28;114264;-68
2023/02/24 04:14:46;;;;;;;14.52;3.08;;;;;;;6.22;59.86;101247.41;4987940;28;123149;-68
2023/02/24 04:17:37;;;;;;;11.10;2.75;;;;;;;6.19;59.83;101252.72;4955838;28;123164;-68
2023/02/24 04:20:12;;;;;;;16.80;2.95;;;;;;;6.16;59.46;101242.25;4987673;28;114528;-68
2023/02/24 04:22:50;;;;;;;17.67;3.25;;;;;;;6.13;59.72;101247.59;4979437;28;114204;-73
2023/02/24 04:25:23;;;;;;;11.95;3.08;;;;;;;6.10;59.88;101252.91;4971880;28;124733;-68
2023/02/24 04:27:54;;;;;;;13.65;3.20;;;;;;;6.10;60.18;101252.91;4971656;28;126680;-75
2023/02/24 04:30:25;;;;;;;13.40;3.00;;;;;;;6.07;60.28;101242.47;4973341;28;113345;-68
2023/02/24 04:32:55;;;;;;;13.30;3.22;;;;;;;6.04;59.85;101244.22;4973085;28;112259;-68
2023/02/24 04:35:28;;;;;;;15.90;3.88;;;;;;;6.03;59.78;101237.25;4970400;28;123289;-68
2023/02/24 04:37:56;;;;;;;15.70;3.88;;;;;;;6.02;60.04;101235.50;4967945;28;123268;-68
2023/02/24 04:40:24;;;;;;;9.50;3.05;;;;;;;6.00;60.24;101231.19;4972787;28;113561;-70
2023/02/24 04:42:53;;;;;;;17.65;3.33;;;;;;;5.99;60.25;101235.59;4990382;28;116321;-67
2023/02/24 04:45:23;;;;;;;16.00;3.30;;;;;;;5.96;60.18;101230.38;4986803;28;123930;-67
2023/02/24 04:47:54;;;;;;;19.35;3.78;;;;;;;5.94;60.23;101229.50;4987564;28;124266;-67
2023/02/24 04:50:24;;;;;;;13.38;3.20;;;;;;;5.94;59.97;101221.63;4987849;28;114290;-68
2023/02/24 04:52:53;;;;;;;14.65;3.45;;;;;;;5.94;60.08;101226.88;4971598;28;115271;-68
2023/02/24 04:55:22;;;;;;;15.40;3.58;;;;;;;5.93;59.92;101214.63;4987878;28;123898;-67
2023/02/24 04:57:53;;;;;;;12.95;3.72;;;;;;;5.93;60.08;101214.63;4971925;28;122813;-67
2023/02/24 05:00:25;;;;;;;11.95;3.33;;;;;;;5.95;60.39;101212.91;4989727;28;114948;-69
2023/02/24 05:02:55;;;;;;;13.65;3.70;;;;;;;5.95;60.24;101202.38;4990383;28;113811;-68
2023/02/24 05:05:26;;;;;;;15.73;3.33;;;;;;;5.96;60.18;101201.47;4990918;28;124013;-68
2023/02/24 05:07:56;;;;;;;16.15;3.40;;;;;;;5.98;60.64;101197.03;4990285;28;124996;-72
2023/02/24 05:10:26;;;;;;;11.55;3.25;;;;;;;5.99;60.21;101198.78;4992213;28;115857;-67
2023/02/24 05:12:57;;;;;;;14.55;3.42;;;;;;;6.01;60.23;101194.34;4993502;28;115014;-67
2023/02/24 05:15:31;;;;;;;14.68;3.28;;;;;;;6.03;60.18;101189.94;4974962;28;122189;-67
2023/02/24 05:18:07;;;;;;;12.75;3.40;;;;;;;6.06;60.30;101188.13;4991617;28;124060;-67
2023/02/24 05:23:33;;;;;;;13.05;2.95;;;;;;;6.06;60.45;101177.63;4991761;28;114051;-67
2023/02/24 05:26:07;;;;;;;10.48;3.10;;;;;;;6.09;60.00;101177.56;4990831;28;124114;-67
2023/02/24 05:28:39;;;;;;;11.65;2.72;;;;;;;6.09;60.27;101167.03;4988869;28;124790;-67
2023/02/24 05:31:13;;;;;;;11.13;3.10;;;;;;;6.11;60.08;101170.50;4970611;28;114504;-67
2023/02/24 05:33:48;;;;;;;12.43;2.97;;;;;;;6.13;60.25;101164.31;4992331;28;113434;-68
2023/02/24 05:36:18;;;;;;;11.73;3.00;;;;;;;6.15;60.27;101159.88;4986291;28;124024;-67
2023/02/24 05:39:06;;;;;;;9.07;3.20;;;;;;;6.15;59.99;101156.38;4990017;28;123946;-68
2023/02/24 05:41:37;;;;;;;12.23;2.78;;;;;;;6.16;60.43;101147.56;4991726;28;114147;-68
2023/02/24 05:44:09;;;;;;;12.48;2.58;;;;;;;6.18;60.09;101145.81;4972559;28;114657;-69
2023/02/24 05:46:40;;;;;;;10.27;2.63;;;;;;;6.18;60.07;101141.41;4989509;28;124347;-67
2023/02/24 05:49:13;;;;;;;11.80;3.00;;;;;;;6.19;60.15;101147.53;4992493;28;123715;-67
2023/02/24 05:51:53;;;;;;;15.02;3.72;;;;;;;6.21;60.21;101135.19;4989349;28;114669;-67
2023/02/24 05:54:29;;;;;;;8.25;2.78;;;;;;;6.21;60.19;101127.31;4990178;28;114041;-67
2023/02/24 05:57:04;;;;;;;;;;;;;;;6.21;59.96;101124.69;4972054;28;124574;-67
2023/02/24 05:59:32;;;;;;;10.68;2.85;;;;;;;6.21;60.27;101115.03;4992840;28;124140;-68
2023/02/24 06:02:05;;;;;;;12.55;2.92;;;;;;;6.21;60.30;101114.16;4991075;28;115414;-68
2023/02/24 06:04:38;;;;;;;10.57;2.30;;;;;;;6.19;60.12;101115.97;4989980;28;115032;-67
2023/02/24 06:07:12;;;;;;;13.40;2.55;;;;;;;6.21;59.93;101114.16;4990419;28;124321;-68
2023/02/24 06:09:43;;;;;;;6.88;2.10;;;;;;;6.21;60.04;101103.66;4992521;28;123830;-68
2023/02/24 06:12:13;;;;;;;7.85;2.20;;;;;;;6.22;60.39;101108.03;4991687;28;114251;-68
2023/02/24 06:14:41;;;;;;;9.77;1.80;;;;;;;6.25;60.34;101110.56;4990156;28;114348;-68
2023/02/24 06:17:08;;;;;;;11.43;2.47;;;;;;;6.26;60.22;101104.41;4973196;28;122917;-68
2023/02/24 06:19:35;;;;;;;10.57;2.42;;;;;;;6.28;60.40;101107.88;4987247;28;123812;-68
2023/02/24 06:22:03;;;;;;;8.23;2.65;;;;;;;6.30;60.06;101100.81;4992438;28;114227;-68
2023/02/24 06:24:32;;;;;;;12.55;2.40;;;;;;;6.33;60.25;101098.13;4989428;28;114091;-67
2023/02/24 06:27:08;;;;;;;5.72;2.03;;;;;;;6.36;59.93;101086.66;4972819;28;123213;-68
2023/02/24 06:29:36;;;;;;;11.55;2.47;;;;;;;6.38;59.87;101080.44;4989944;28;123975;-67
2023/02/24 06:32:10;;;;;;;11.57;2.15;;;;;;;6.39;59.95;101066.41;4974196;28;114343;-68
2023/02/24 06:34:38;;;;;;;4.72;1.73;;;;;;;6.39;60.01;101066.41;4987526;28;114071;-67
2023/02/24 06:37:06;;;;;;;9.73;2.33;;;;;;;6.41;60.16;101059.31;4989061;28;124713;-68
2023/02/24 06:39:33;;;;;;;10.73;1.85;;;;;;;6.43;59.69;101062.78;4989311;28;125501;-67
2023/02/24 06:42:04;;;;;;;11.52;1.88;;;;;;;6.45;59.87;101059.25;4991463;28;114294;-68
2023/02/24 06:44:32;;;;;;;15.32;2.42;;;;;;;6.46;60.08;101055.72;4991633;28;114316;-67
2023/02/24 06:47:00;;;;;;;9.68;1.95;;;;;;;6.46;60.28;101060.97;4991455;28;124812;-69
2023/02/24 06:49:28;;;;;;;8.93;1.95;;;;;;;6.46;59.96;101061.88;4989444;28;123957;-67
2023/02/24 06:51:56;;;;;;;6.60;1.80;;;;;;;6.46;60.28;101058.34;4990698;28;114491;-67
2023/02/24 06:54:27;;;;;;;8.25;2.05;;;;;;;6.49;59.83;101053.03;4989810;28;115083;-68
2023/02/24 06:56:57;;;;;;;4.95;1.65;;;;;;;6.49;59.87;101050.38;4990266;28;123239;-68
2023/02/24 06:59:28;;;;;;;7.15;1.90;;;;;;;6.52;59.61;101047.69;4989607;28;124130;-70
2023/02/24 07:02:00;;;;;;;9.85;2.00;;;;;;;6.52;59.93;101045.06;4972422;28;114107;-69
2023/02/24 07:04:28;;;;;;;6.80;2.50;;;;;;;6.54;59.94;101043.25;4987691;28;113904;-68
2023/02/24 07:07:01;;;;;;;8.20;1.70;;;;;;;6.55;60.20;101039.69;4989942;28;124432;-68
2023/02/24 07:09:30;;;;;;;9.05;2.17;;;;;;;6.58;59.96;101034.38;4974361;28;122792;-68
2023/02/24 07:12:01;;;;;;;8.40;1.80;;;;;;;6.59;60.23;101031.72;4990869;28;114004;-68
2023/02/24 07:14:31;;;;;;;14.82;2.00;;;;;;;6.61;60.04;101029.00;4971045;28;114184;-69
2023/02/24 07:16:59;;;;;;;11.57;1.80;;;;;;;6.64;59.86;101028.94;4985795;28;125322;-69
2023/02/24 07:19:31;;;;;;;5.40;1.52;;;;;;;6.66;59.93;101019.25;4989034;28;124301;-68
2023/02/24 07:22:00;;;;;;;8.48;2.25;;;;;;;6.69;60.21;101021.81;4986707;28;115091;-68
2023/02/24 07:24:35;;;;;;;10.18;2.20;;;;;;;6.71;59.82;101025.25;4989647;28;114194;-68
2023/02/24 07:27:10;;;;;;;5.57;1.70;;;;;;;6.73;59.95;101017.31;4988150;28;124202;-70
2023/02/24 07:29:38;;;;;;;7.47;2.10;;;;;;;6.76;59.83;101017.22;4987990;28;123802;-67
2023/02/24 07:32:08;;;;;;;7.10;2.08;;;;;;;6.79;59.94;101019.78;4989029;28;114150;-68
2023/02/24 07:34:39;;;;;;;10.27;1.88;;;;;;;6.81;59.78;101021.47;4987674;28;114093;-68
2023/02/24 07:37:08;;;;;;;10.25;2.13;;;;;;;6.83;59.73;101009.13;4988762;28;124263;-68
2023/02/24 07:39:38;;;;;;;9.48;1.73;;;;;;;6.87;59.80;101009.03;4986912;28;126194;-68
2023/02/24 07:42:13;;;;;;;7.80;1.73;;;;;;;6.90;59.88;101003.72;4989892;28;115494;-68
2023/02/24 07:44:45;;;;;;;6.95;1.95;;;;;;;6.92;59.70;101001.91;4972766;28;114234;-68
2023/02/24 07:47:14;;;;;;;11.07;1.75;;;;;;;6.97;60.08;100994.75;4971756;28;123811;-68
2023/02/24 07:49:42;;;;;;;6.57;1.50;;;;;;;6.99;59.95;100992.94;4953914;28;123989;-68
2023/02/24 07:52:10;;;;;;;4.78;1.85;;;;;;;7.04;59.93;100990.16;4989662;28;114188;-68
2023/02/24 07:54:38;;;;;;;9.35;1.85;;;;;;;7.06;59.88;100983.06;4987326;28;114092;-68
2023/02/24 07:57:12;;;;;;;7.90;1.70;;;;;;;7.08;59.92;100982.09;4989283;28;123835;-68
2023/02/24 07:59:45;;;;;;;10.82;1.70;;;;;;;7.13;59.44;100980.22;4988418;28;124207;-68
2023/02/24 08:02:14;;;;;;;5.80;1.90;;;;;;;7.16;59.78;100966.97;4972548;28;114323;-68
2023/02/24 08:04:48;;;;;;;8.90;1.65;;;;;;;7.20;59.49;100971.25;4990458;28;114587;-68
2023/02/24 08:07:22;;;;;;;8.75;1.90;;;;;;;7.26;60.01;100969.34;4987822;28;122909;-67
2023/02/24 08:10:12;;;;;;;7.40;1.50;;;;;;;7.31;59.80;100962.13;4988011;28;124344;-67
2023/02/24 08:12:43;;;;;;;9.57;1.70;;;;;;;7.33;59.53;100955.09;4976534;28;113260;-68
2023/02/24 08:15:22;;;;;;;6.20;1.58;;;;;;;7.37;59.81;100956.72;4983566;28;114300;-67
2023/02/24 08:17:58;;;;;;;7.80;1.60;;;;;;;7.41;59.44;100953.06;4965959;28;123815;-68
2023/02/24 08:20:34;;;;;;;7.22;1.48;;;;;;;7.44;59.53;100953.00;4985382;28;123793;-68
2023/02/24 08:23:05;;;;;;;4.47;1.30;;;;;;;7.50;59.60;100947.53;4972090;28;114450;-68
2023/02/24 08:25:35;;;;;;;7.60;1.73;;;;;;;7.54;59.23;100938.59;4987965;28;114093;-69
2023/02/24 08:28:06;;;;;;;7.07;1.95;;;;;;;7.58;59.33;100940.22;4989156;28;124233;-68
2023/02/24 08:30:43;;;;;;;8.57;1.40;;;;;;;7.63;59.61;100933.94;4989302;28;123823;-67
2023/02/24 08:33:18;;;;;;;7.45;1.55;;;;;;;7.68;59.24;100937.31;4988408;28;115097;-68
2023/02/24 08:35:59;;;;;;;7.43;1.50;;;;;;;7.72;59.00;100936.31;4965577;28;115603;-67
2023/02/24 08:38:38;;;;;;;8.15;1.45;;;;;;;7.77;58.99;100939.66;4987684;28;124024;-67
2023/02/24 08:41:19;;;;;;;9.00;1.50;;;;;;;7.81;59.25;100936.00;4967735;28;125715;-68
2023/02/24 08:43:48;;;;;;;6.38;1.30;;;;;;;7.86;59.18;100934.09;4967594;28;114290;-68
2023/02/24 08:46:20;;;;;;;7.55;1.52;;;;;;;7.89;58.88;100927.84;4971994;28;113741;-68
2023/02/24 08:48:55;;;;;;;6.88;1.30;;;;;;;7.94;58.81;100925.94;4986428;28;123947;-68
2023/02/24 08:51:34;;;;;;;8.13;1.40;;;;;;;7.97;59.05;100918.78;4985682;28;122984;-68
2023/02/24 08:54:09;;;;;;;6.57;1.50;;;;;;;8.03;59.09;100915.09;4985742;28;115636;-68
2023/02/24 08:56:42;;;;;;;10.38;1.80;;;;;;;8.08;58.79;100907.00;4985695;28;113837;-68
2023/02/24 08:59:27;;;;;;;6.30;1.30;;;;;;;8.09;58.75;100909.59;4988354;28;124137;-68
2023/02/24 09:02:17;;;;;;;6.95;1.58;;;;;;;8.12;58.69;100908.66;4987805;28;123696;-68
2023/02/24 09:04:45;;;;;;;5.93;1.38;;;;;;;8.12;58.55;100906.00;4988625;28;114386;-68
2023/02/24 09:07:15;;;;;;;7.20;1.48;;;;;;;8.14;58.79;100902.41;4989750;28;114310;-68
2023/02/24 09:09:43;;;;;;;8.23;1.40;;;;;;;8.16;58.79;100895.28;4989275;28;124269;-68
2023/02/24 09:12:23;;;;;;;9.50;1.48;;;;;;;8.17;58.74;100889.09;4989981;28;124760;-68
2023/02/24 09:14:54;;;;;;;8.77;1.60;;;;;;;8.19;58.85;100879.38;4967280;28;114475;-68
2023/02/24 09:17:38;;;;;;;5.78;1.48;;;;;;;8.22;58.81;100870.47;4985201;28;114003;-67
2023/02/24 09:23:06;;;;;;;;;;;;;;;8.25;58.67;100857.19;4972951;28;122850;-66
2023/02/24 09:25:39;;;;;;;6.05;1.17;;;;;;;8.27;58.57;100855.34;4989301;28;115771;-68
2023/02/24 09:28:18;;;;;;;7.22;1.60;;;;;;;8.28;58.83;100857.06;4988082;28;115321;-67
2023/02/24 09:30:51;;;;;;;5.97;2.03;;;;;;;8.29;58.83;100848.22;4977369;28;124384;-67
2023/02/24 09:33:27;;;;;;;11.15;2.88;;;;;;;8.31;58.87;100851.69;4989939;28;124115;-67
2023/02/24 09:36:09;;;;;;;11.85;2.33;;;;;;;8.35;58.61;100853.28;4987529;28;113999;-66
2023/02/24 09:41:52;;;;;;;9.85;2.10;;;;;;;8.38;58.30;100826.81;4988316;28;124396;-67
2023/02/24 09:44:37;;;;;;;6.90;1.52;;;;;;;8.38;58.65;100826.81;4982365;28;124208;-67
2023/02/24 09:50:12;;;;;;;7.03;1.70;;;;;;;8.43;58.50;100828.44;4981914;28;113011;-67
2023/02/24 09:52:41;;;;;;;10.63;1.85;;;;;;;8.45;58.85;100830.09;4973689;28;124082;-67
2023/02/24 09:55:28;;;;;;;8.90;2.03;;;;;;;8.47;58.74;100830.03;4990028;28;124488;-67
2023/02/24 10:00:50;;;;;;;11.02;1.88;;;;;;;8.53;58.55;100808.69;4991028;28;113895;-67
2023/02/24 10:03:41;;;;;;;8.63;1.80;;;;;;;8.55;58.59;100806.84;4992455;28;123797;-67
2023/02/24 10:06:25;;;;;;;7.10;1.67;;;;;;;8.57;58.59;100799.75;4990280;28;123849;-67
2023/02/24 10:09:10;;;;;;;4.80;1.45;;;;;;;8.56;58.47;100798.03;4967321;28;113738;-67
2023/02/24 10:11:52;;;;;;;5.47;1.30;;;;;;;8.57;58.45;100795.34;4992094;28;114418;-67
2023/02/24 10:14:52;;;;;;;12.20;1.92;;;;;;;8.58;58.46;100796.19;4973456;28;124372;-67
2023/02/24 10:17:38;;;;;;;;;;;;;;;8.58;58.61;100788.28;4986579;28;123941;-67
2023/02/24 10:20:12;;;;;;;6.13;1.63;;;;;;;8.57;58.34;100783.94;4975554;28;114429;-68
2023/02/24 10:22:51;;;;;;;9.43;2.13;;;;;;;8.57;58.63;100789.22;4993257;28;115354;-68
2023/02/24 10:25:37;;;;;;;5.55;1.75;;;;;;;8.58;58.34;100785.63;4974522;28;123019;-70
2023/02/24 10:28:05;;;;;;;4.13;1.42;;;;;;;8.59;58.74;100782.09;4967884;28;122960;-68
2023/02/24 10:31:00;;;;;;;7.20;1.95;;;;;;;8.60;58.67;100773.22;4980621;28;114294;-68
2023/02/24 10:33:36;;;;;;;8.45;1.88;;;;;;;8.64;58.60;100774.81;4992038;28;113899;-69
2023/02/24 10:36:07;;;;;;;9.93;1.95;;;;;;;8.64;58.66;100769.53;4974313;28;123921;-68
2023/02/24 10:38:45;;;;;;;8.73;1.58;;;;;;;8.68;58.82;100771.19;4985157;28;123266;-70
2023/02/24 10:41:13;;;;;;;8.38;1.60;;;;;;;8.73;58.92;100766.56;4991041;28;114663;-69
2023/02/24 10:43:52;;;;;;;8.88;1.83;;;;;;;8.77;58.93;100760.22;4992246;28;113716;-69
2023/02/24 10:46:32;;;;;;;7.32;1.90;;;;;;;8.83;58.88;100768.84;4989214;28;124043;-72
2023/02/24 10:49:15;;;;;;;7.32;1.85;;;;;;;8.86;58.66;100760.81;4973780;28;124063;-69
2023/02/24 10:51:51;;;;;;;8.77;2.13;;;;;;;8.90;58.70;100749.19;4989636;28;115894;-69
2023/02/24 10:54:43;;;;;;;11.15;2.38;;;;;;;8.93;58.50;100754.38;4972720;28;113222;-69
2023/02/24 10:57:17;;;;;;;10.75;2.80;;;;;;;8.97;58.89;100750.69;4988773;28;124198;-69
2023/02/24 11:06:05;;;;;;;12.48;2.58;;;;;;;9.01;58.67;100747.00;4978165;28;114159;-69
2023/02/24 11:08:42;;;;;;;5.43;2.08;;;;;;;9.02;58.42;100732.84;4990481;28;124103;-69
2023/02/24 11:11:32;;;;;;;7.35;2.38;;;;;;;9.04;58.72;100736.31;4983299;28;123943;-68
2023/02/24 11:19:48;;;;;;;9.75;2.45;;;;;;;9.09;59.09;100712.34;4989468;28;124003;-68
2023/02/24 11:22:20;;;;;;;10.90;2.10;;;;;;;9.11;58.91;100716.63;4991620;28;123954;-69
2023/02/24 11:24:50;;;;;;;10.82;2.17;;;;;;;9.13;58.56;100704.22;4986937;28;114320;-68
2023/02/24 11:27:21;;;;;;;5.50;1.50;;;;;;;9.18;58.60;100711.09;4990094;28;113382;-68
2023/02/24 11:30:00;;;;;;;4.50;1.80;;;;;;;9.18;58.74;100700.53;4989684;28;124352;-68
2023/02/24 11:32:57;;;;;;;5.38;1.98;;;;;;;9.18;58.60;100700.53;4970400;28;123467;-68
2023/02/24 11:35:29;;;;;;;13.23;2.05;;;;;;;9.21;58.67;100690.72;4965080;28;113403;-68
2023/02/24 11:38:44;;;;;;;6.30;1.88;;;;;;;9.24;58.63;100681.78;4986632;28;114262;-69
2023/02/24 11:41:30;;;;;;;6.55;2.47;;;;;;;9.25;58.89;100676.44;4974025;28;125282;-68
2023/02/24 11:44:12;;;;;;;6.28;2.58;;;;;;;9.28;58.66;100672.78;4987203;28;124430;-69
2023/02/24 11:46:48;;;;;;;8.95;1.92;;;;;;;9.29;58.93;100674.53;4986193;28;114950;-68
2023/02/24 11:49:39;;;;;;;10.07;2.35;;;;;;;9.28;58.81;100670.16;4989609;28;114363;-68
2023/02/24 11:52:22;;;;;;;7.03;2.33;;;;;;;9.27;58.66;100668.44;4969545;28;123465;-68
2023/02/24 11:54:55;;;;;;;14.77;2.70;;;;;;;9.28;58.81;100670.16;4987914;28;124044;-67
2023/02/24 11:57:47;;;;;;;9.63;2.50;;;;;;;9.28;58.83;100660.44;4986357;28;115308;-68
2023/02/24 12:00:19;;;;;;;10.70;2.40;;;;;;;9.29;59.16;100661.31;4972417;28;112691;-68
2023/02/24 12:02:56;;;;;;;12.00;2.58;;;;;;;9.28;59.02;100655.16;4987830;28;123339;-68
2023/02/24 12:05:36;;;;;;;10.50;2.63;;;;;;;9.28;59.19;100656.94;4987447;28;124308;-68
2023/02/24 12:08:06;;;;;;;6.63;2.40;;;;;;;9.27;58.96;100647.31;4988663;28;115645;-68
2023/02/24 12:10:38;;;;;;;10.65;2.47;;;;;;;9.27;59.01;100642.03;4987132;28;115018;-68
2023/02/24 12:13:26;;;;;;;9.70;2.45;;;;;;;9.27;59.01;100642.88;4989550;28;124159;-69
2023/02/24 12:16:09;;;;;;;8.50;2.50;;;;;;;9.31;59.46;100633.03;4987713;28;124474;-69
2023/02/24 12:18:45;;;;;;;9.50;2.90;;;;;;;9.29;59.23;100629.59;4988073;28;114200;-69
2023/02/24 12:21:29;;;;;;;7.60;2.58;;;;;;;9.30;59.52;100626.00;4965529;28;114053;-69
2023/02/24 12:23:57;;;;;;;6.70;2.85;;;;;;;9.32;59.40;100610.94;4966670;28;124076;-69
2023/02/24 12:26:46;;;;;;;13.90;2.90;;;;;;;9.32;59.43;100613.59;4970562;28;122715;-69